createdAt,value
2023-07-03T00:02:16.146Z,2.00
2023-07-03T00:05:11.587Z,2.20
2023-07-03T00:08:05.416Z,2.40
2023-07-03T00:10:52.484Z,1.50
2023-07-03T00:13:25.578Z,1.40
2023-07-03T00:16:13.479Z,2.00
2023-07-03T00:19:47.035Z,1.50
2023-07-03T00:22:34.080Z,1.30
2023-07-03T00:25:07.207Z,1.60
2023-07-03T00:27:55.118Z,1.70
2023-07-03T00:30:28.183Z,1.90
2023-07-03T00:33:22.311Z,2.50
2023-07-03T00:36:17.985Z,1.50
2023-07-03T00:39:05.998Z,1.40
2023-07-03T00:41:40.214Z,1.60
2023-07-03T00:44:28.005Z,1.60
2023-07-03T00:47:01.143Z,1.70
2023-07-03T00:49:49.014Z,1.50
2023-07-03T00:52:23.468Z,1.60
2023-07-03T00:55:09.982Z,1.50
2023-07-03T00:57:44.159Z,1.50
2023-07-03T01:00:34.982Z,1.70
2023-07-03T01:03:43.074Z,1.30
2023-07-03T01:06:35.954Z,1.80
2023-07-03T01:09:10.080Z,1.50
2023-07-03T01:11:58.928Z,1.60
2023-07-03T01:14:35.042Z,2.00
2023-07-03T01:17:30.016Z,1.60
2023-07-03T01:20:29.932Z,2.00
2023-07-03T01:23:42.934Z,1.90
2023-07-03T01:26:19.047Z,1.80
2023-07-03T01:29:08.931Z,2.00
2023-07-03T01:31:45.064Z,1.80
2023-07-03T01:34:35.868Z,1.80
2023-07-03T01:37:11.004Z,1.80
2023-07-03T01:39:59.217Z,1.40
2023-07-03T01:42:39.865Z,2.40
2023-07-03T01:45:26.932Z,1.80
2023-07-03T01:48:01.022Z,2.00
2023-07-03T01:50:48.849Z,2.90
2023-07-03T01:53:33.939Z,1.80
2023-07-03T01:56:32.816Z,2.10
2023-07-03T01:59:31.497Z,1.90
2023-07-03T02:02:24.965Z,1.80
2023-07-03T02:05:07.265Z,2.30
2023-07-03T02:07:54.847Z,2.20
2023-07-03T02:10:28.992Z,2.10
2023-07-03T02:13:15.819Z,2.70
2023-07-03T02:15:50.192Z,1.80
2023-07-03T02:18:37.817Z,2.60
2023-07-03T02:21:17.872Z,1.80
2023-07-03T02:23:57.724Z,2.10
2023-07-03T02:26:38.935Z,1.60
2023-07-03T02:29:20.780Z,1.90
2023-07-03T02:32:00.905Z,1.70
2023-07-03T02:34:40.760Z,1.90
2023-07-03T02:37:21.595Z,2.00
2023-07-03T02:40:01.786Z,2.30
2023-07-03T02:42:42.924Z,1.50
2023-07-03T02:45:23.747Z,2.00
2023-07-03T02:48:03.950Z,1.70
2023-07-03T02:50:43.909Z,2.10
2023-07-03T02:53:23.826Z,2.80
2023-07-03T02:56:04.737Z,2.00
2023-07-03T02:58:46.047Z,1.60
2023-07-03T03:01:29.708Z,1.90
2023-07-03T03:04:09.839Z,1.50
2023-07-03T03:06:50.686Z,1.20
2023-07-03T03:09:30.776Z,2.00
2023-07-03T03:12:10.667Z,1.70
2023-07-03T03:14:51.235Z,2.50
2023-07-03T03:17:31.721Z,1.80
2023-07-03T03:20:15.176Z,1.60
2023-07-03T03:22:55.644Z,2.10
2023-07-03T03:25:35.838Z,2.80
2023-07-03T03:28:15.628Z,1.60
2023-07-03T03:30:55.759Z,1.40
2023-07-03T03:33:35.601Z,2.20
2023-07-03T03:36:15.740Z,1.80
2023-07-03T03:38:56.642Z,1.90
2023-07-03T03:41:36.690Z,1.90
2023-07-03T03:44:16.842Z,1.90
2023-07-03T03:49:40.687Z,1.90
2023-07-03T03:52:20.730Z,1.80
2023-07-03T03:55:00.533Z,2.10
2023-07-03T03:57:40.713Z,1.70
2023-07-03T04:00:28.601Z,2.00
2023-07-03T04:03:08.679Z,1.70
2023-07-03T04:05:49.931Z,2.00
2023-07-03T04:08:30.623Z,1.90
2023-07-03T04:11:10.538Z,1.80
2023-07-03T04:13:50.642Z,1.80
2023-07-03T04:16:33.540Z,1.50
2023-07-03T04:19:27.472Z,1.80
2023-07-03T04:22:14.488Z,1.90
2023-07-03T04:24:47.575Z,1.50
2023-07-03T04:27:34.479Z,1.50
2023-07-03T04:30:17.089Z,1.80
2023-07-03T04:33:01.513Z,1.70
2023-07-03T04:35:44.603Z,1.60
2023-07-03T04:41:11.575Z,1.70
2023-07-03T04:43:54.498Z,1.70
2023-07-03T04:46:36.222Z,2.00
2023-07-03T04:49:16.773Z,1.40
2023-07-03T04:51:56.655Z,1.50
2023-07-03T04:54:36.434Z,2.00
2023-07-03T04:57:16.518Z,2.30
2023-07-03T04:59:57.437Z,2.40
2023-07-03T05:02:37.504Z,1.60
2023-07-03T05:05:18.549Z,1.80
2023-07-03T05:07:59.171Z,1.60
2023-07-03T05:10:39.373Z,1.40
2023-07-03T05:13:19.571Z,1.40
2023-07-03T05:16:00.377Z,1.50
2023-07-03T05:18:54.314Z,1.70
2023-07-03T05:21:42.391Z,1.50
2023-07-03T05:24:16.523Z,1.40
2023-07-03T05:27:03.405Z,1.50
2023-07-03T05:29:39.425Z,1.80
2023-07-03T05:32:26.337Z,1.60
2023-07-03T05:35:07.540Z,1.30
2023-07-03T05:37:47.345Z,1.20
2023-07-03T05:40:31.159Z,1.00
2023-07-03T05:43:11.298Z,1.30
2023-07-03T05:45:52.282Z,1.50
2023-07-03T05:48:32.345Z,1.00
2023-07-03T05:51:14.037Z,1.30
2023-07-03T05:53:54.602Z,1.60
2023-07-03T05:56:35.419Z,1.40
2023-07-03T05:59:17.258Z,1.60
2023-07-03T06:01:57.832Z,1.70
2023-07-03T06:04:38.349Z,1.60
2023-07-03T06:07:19.382Z,1.50
2023-07-03T06:09:59.308Z,1.70
2023-07-03T06:12:39.411Z,1.60
2023-07-03T06:15:19.259Z,1.50
2023-07-03T06:18:13.220Z,1.80
2023-07-03T06:21:00.213Z,1.40
2023-07-03T06:23:33.313Z,2.00
2023-07-03T06:26:20.272Z,1.80
2023-07-03T06:28:54.050Z,1.90
2023-07-03T06:31:42.241Z,1.70
2023-07-03T06:34:16.282Z,1.60
2023-07-03T06:37:03.232Z,1.80
2023-07-03T06:39:46.250Z,1.40
2023-07-03T06:42:26.193Z,2.00
2023-07-03T06:45:07.269Z,1.70
2023-07-03T06:47:47.237Z,1.50
2023-07-03T06:50:27.882Z,1.60
2023-07-03T06:53:08.180Z,1.60
2023-07-03T06:55:48.411Z,1.60
2023-07-03T06:58:29.466Z,1.50
2023-07-03T07:01:20.344Z,1.50
2023-07-03T07:04:00.184Z,1.70
2023-07-03T07:06:40.196Z,1.40
2023-07-03T07:09:20.098Z,1.40
2023-07-03T07:12:00.246Z,1.60
2023-07-03T07:14:40.131Z,1.70
2023-07-03T07:17:20.207Z,2.00
2023-07-03T07:20:00.158Z,1.80
2023-07-03T07:22:40.283Z,2.30
2023-07-03T07:25:20.098Z,2.40
2023-07-03T07:28:00.142Z,2.40
2023-07-03T07:30:40.128Z,2.10
2023-07-03T07:33:22.173Z,2.30
2023-07-03T07:36:02.080Z,2.30
2023-07-03T07:38:42.177Z,1.80
2023-07-03T07:41:22.056Z,1.80
2023-07-03T07:44:03.128Z,1.60
2023-07-03T07:46:44.058Z,1.80
2023-07-03T07:49:24.167Z,2.20
2023-07-03T07:52:05.034Z,1.70
2023-07-03T07:54:45.080Z,1.40
2023-07-03T07:57:25.045Z,1.30
2023-07-03T08:00:05.335Z,1.50
2023-07-03T08:02:52.284Z,1.50
2023-07-03T08:05:32.612Z,1.60
2023-07-03T08:08:12.998Z,1.90
2023-07-03T08:11:02.068Z,1.50
2023-07-03T08:13:42.953Z,1.40
2023-07-03T08:16:23.197Z,1.70
2023-07-03T08:19:02.930Z,2.00
2023-07-03T08:24:22.974Z,1.70
2023-07-03T08:27:03.031Z,1.30
2023-07-03T08:29:44.956Z,1.40
2023-07-03T08:32:25.106Z,1.70
2023-07-03T08:37:50.025Z,2.00
2023-07-03T08:40:30.945Z,1.80
2023-07-03T08:43:15.308Z,1.40
2023-07-03T08:45:56.918Z,1.80
2023-07-03T08:48:42.004Z,2.30
2023-07-03T08:51:26.928Z,2.40
2023-07-03T08:54:26.049Z,2.10
2023-07-03T08:57:08.899Z,2.10
2023-07-03T08:59:49.010Z,2.60
2023-07-03T09:02:51.992Z,1.90
2023-07-03T09:05:43.000Z,1.90
2023-07-03T09:08:33.872Z,2.50
2023-07-03T09:11:14.930Z,2.20
2023-07-03T09:13:58.825Z,2.10
2023-07-03T09:16:40.662Z,2.10
2023-07-03T09:19:38.829Z,2.50
2023-07-03T09:23:00.792Z,2.80
2023-07-03T09:25:51.507Z,2.40
2023-07-03T09:28:27.188Z,1.90
2023-07-03T09:31:14.856Z,2.80
2023-07-03T09:33:50.199Z,2.50
2023-07-03T09:36:45.801Z,2.30
2023-07-03T09:39:21.855Z,2.50
2023-07-03T09:42:15.721Z,2.20
2023-07-03T09:44:48.861Z,1.60
2023-07-03T09:47:36.887Z,1.70
2023-07-03T09:50:16.967Z,2.20
2023-07-03T09:53:08.467Z,3.00
2023-07-03T09:55:51.044Z,2.50
2023-07-03T09:58:34.748Z,2.20
2023-07-03T10:07:08.065Z,2.30
2023-07-03T10:12:47.857Z,2.50
2023-07-03T10:15:33.689Z,3.10
2023-07-03T10:18:49.615Z,2.50
2023-07-03T10:21:39.745Z,2.00
2023-07-03T10:24:14.503Z,2.50
2023-07-03T10:27:06.689Z,2.60
2023-07-03T10:29:47.560Z,2.30
2023-07-03T10:32:39.733Z,2.40
2023-07-03T10:35:36.769Z,2.20
2023-07-03T10:38:26.662Z,2.30
2023-07-03T10:41:09.784Z,2.40
2023-07-03T10:44:08.581Z,2.00
2023-07-03T10:46:49.200Z,2.30
2023-07-03T10:49:40.582Z,2.30
2023-07-03T10:52:38.730Z,2.10
2023-07-03T10:55:23.621Z,2.20
2023-07-03T10:58:09.727Z,2.30
2023-07-03T11:01:00.609Z,2.10
2023-07-03T11:04:15.809Z,1.70
2023-07-03T11:07:15.517Z,1.90
2023-07-03T11:10:33.690Z,1.20
2023-07-03T11:13:20.539Z,1.40
2023-07-03T11:16:23.793Z,1.10
2023-07-03T11:25:30.513Z,1.50
2023-07-03T11:28:34.602Z,2.30
2023-07-03T11:31:15.566Z,2.20
2023-07-03T11:36:51.291Z,2.50
2023-07-03T11:45:14.592Z,2.10
2023-07-03T11:47:54.504Z,2.10
2023-07-03T11:50:42.561Z,2.10
2023-07-03T11:53:40.447Z,2.50
2023-07-03T11:56:20.158Z,2.30
2023-07-03T11:59:10.492Z,2.60
2023-07-03T12:01:44.574Z,2.50
2023-07-03T12:04:53.427Z,2.90
2023-07-03T12:07:26.597Z,2.40
2023-07-03T12:10:25.438Z,2.10
2023-07-03T12:13:33.550Z,2.10
2023-07-03T12:16:20.781Z,2.30
2023-07-03T12:19:07.613Z,2.10
2023-07-03T12:21:58.385Z,2.90
2023-07-03T12:24:38.496Z,2.80
2023-07-03T12:27:18.406Z,2.40
2023-07-03T12:29:58.490Z,2.40
2023-07-03T12:32:41.373Z,2.30
2023-07-03T12:35:25.467Z,2.40
2023-07-03T12:38:12.383Z,2.50
2023-07-03T12:40:53.450Z,2.70
2023-07-03T12:43:33.370Z,2.40
2023-07-03T12:46:13.482Z,2.30
2023-07-03T12:48:53.361Z,2.70
2023-07-03T12:51:33.432Z,2.50
2023-07-03T12:54:18.304Z,2.20
2023-07-03T12:57:02.646Z,2.30
2023-07-03T12:59:43.349Z,2.40
2023-07-03T13:02:33.319Z,2.60
2023-07-03T13:05:19.749Z,2.00
2023-07-03T13:08:07.745Z,2.10
2023-07-03T13:10:48.250Z,2.00
2023-07-03T13:13:30.378Z,2.30
2023-07-03T13:19:15.207Z,2.10
2023-07-03T13:22:02.310Z,2.30
2023-07-03T13:24:37.508Z,2.10
2023-07-03T13:27:33.195Z,2.10
2023-07-03T13:30:33.049Z,2.00
2023-07-03T13:33:32.240Z,1.60
2023-07-03T13:36:05.297Z,1.90
2023-07-03T13:38:52.198Z,2.20
2023-07-03T13:41:26.053Z,2.00
2023-07-03T13:44:16.198Z,2.30
2023-07-03T13:46:51.674Z,2.00
2023-07-03T13:49:38.212Z,2.20
2023-07-03T13:52:13.277Z,1.90
2023-07-03T13:55:00.226Z,2.40
2023-07-03T13:57:40.923Z,1.80
2023-07-03T14:00:22.808Z,2.30
2023-07-03T14:03:03.723Z,2.00
2023-07-03T14:05:44.168Z,2.00
2023-07-03T14:08:24.453Z,1.70
2023-07-03T14:11:04.141Z,2.20
2023-07-03T14:13:45.325Z,1.60
2023-07-03T14:16:26.101Z,1.90
2023-07-03T14:19:20.089Z,1.90
2023-07-03T14:22:07.412Z,1.90
2023-07-03T14:24:41.226Z,2.00
2023-07-03T14:27:28.114Z,1.70
2023-07-03T14:30:09.678Z,1.70
2023-07-03T14:32:55.989Z,2.10
2023-07-03T14:35:36.779Z,2.20
2023-07-03T14:38:17.060Z,1.80
2023-07-03T14:40:58.163Z,2.70
2023-07-03T14:43:38.090Z,2.20
2023-07-03T14:46:18.189Z,2.20
2023-07-03T14:48:58.116Z,1.90
2023-07-03T14:51:38.156Z,1.70
2023-07-03T14:54:18.111Z,2.00
2023-07-03T14:56:59.678Z,1.90
2023-07-03T15:02:20.301Z,2.20
2023-07-03T15:04:59.989Z,2.10
2023-07-03T15:07:42.865Z,1.90
2023-07-03T15:10:23.046Z,2.00
2023-07-03T15:13:04.327Z,2.30
2023-07-03T15:15:43.939Z,2.20
2023-07-03T15:18:32.018Z,2.60
2023-07-03T15:21:25.987Z,2.70
2023-07-03T15:24:23.951Z,2.40
2023-07-03T15:27:13.134Z,2.40
2023-07-03T15:29:47.348Z,2.20
2023-07-03T15:32:33.999Z,2.00
2023-07-03T15:35:07.725Z,2.10
2023-07-03T15:37:55.067Z,1.80
2023-07-03T15:40:28.073Z,1.80
2023-07-03T15:43:14.965Z,1.50
2023-07-03T15:45:48.086Z,1.90
2023-07-03T15:48:37.859Z,1.60
2023-07-03T15:51:13.007Z,1.70
2023-07-03T15:54:00.922Z,1.20
2023-07-03T15:56:34.034Z,1.80
2023-07-03T15:59:20.885Z,1.40
2023-07-03T16:01:54.011Z,1.90
2023-07-03T16:04:42.064Z,1.50
2023-07-03T16:07:16.067Z,1.40
2023-07-03T16:10:02.902Z,1.20
2023-07-03T16:12:36.577Z,1.30
2023-07-03T16:15:23.885Z,1.50
2023-07-03T16:17:57.108Z,1.40
2023-07-03T16:20:50.840Z,1.30
2023-07-03T16:23:46.806Z,1.60
2023-07-03T16:26:34.814Z,1.10
2023-07-03T16:29:09.468Z,1.50
2023-07-03T16:31:57.151Z,1.30
2023-07-03T16:34:30.936Z,1.30
2023-07-03T16:37:17.748Z,1.40
2023-07-03T16:39:50.881Z,1.70
2023-07-03T16:42:37.818Z,1.50
2023-07-03T16:45:11.953Z,1.30
2023-07-03T16:47:58.863Z,1.60
2023-07-03T16:50:32.267Z,1.50
2023-07-03T16:53:18.758Z,2.00
2023-07-03T16:55:52.292Z,1.40
2023-07-03T16:58:40.771Z,1.50
2023-07-03T17:01:17.891Z,1.70
2023-07-03T17:04:05.781Z,1.90
2023-07-03T17:06:42.544Z,1.50
2023-07-03T17:09:29.696Z,1.70
2023-07-03T17:12:02.886Z,1.40
2023-07-03T17:14:49.695Z,1.50
2023-07-03T17:17:22.849Z,1.50
2023-07-03T17:20:16.738Z,1.50
2023-07-03T17:23:11.638Z,2.10
2023-07-03T17:26:00.643Z,1.40
2023-07-03T17:28:34.929Z,1.40
2023-07-03T17:31:21.787Z,1.00
2023-07-03T17:33:54.769Z,1.50
2023-07-03T17:36:41.915Z,1.20
2023-07-03T17:39:15.770Z,1.00
2023-07-03T17:42:02.657Z,1.10
2023-07-03T17:44:35.773Z,1.50
2023-07-03T17:47:22.651Z,1.20
2023-07-03T17:49:57.632Z,1.10
2023-07-03T17:52:44.644Z,1.90
2023-07-03T17:55:18.729Z,1.00
2023-07-03T17:58:07.900Z,1.00
2023-07-03T18:00:42.278Z,1.30
2023-07-03T18:03:30.861Z,1.00
2023-07-03T18:06:07.578Z,1.60
2023-07-03T18:08:54.637Z,1.40
2023-07-03T18:11:31.280Z,1.30
2023-07-03T18:14:18.602Z,1.50
2023-07-03T18:16:51.991Z,1.40
2023-07-03T18:19:45.607Z,1.00
2023-07-03T18:22:40.497Z,1.20
2023-07-03T18:25:27.552Z,1.40
2023-07-03T18:28:01.735Z,1.30
2023-07-03T18:30:48.602Z,1.30
2023-07-03T18:33:22.383Z,1.20
2023-07-03T18:36:10.553Z,1.10
2023-07-03T18:38:46.690Z,1.60
2023-07-03T18:41:35.824Z,1.20
2023-07-03T18:44:10.263Z,1.30
2023-07-03T18:46:57.520Z,1.30
2023-07-03T18:49:31.629Z,1.30
2023-07-03T18:52:18.518Z,1.10
2023-07-03T18:54:53.375Z,1.20
2023-07-03T18:57:42.081Z,1.20
2023-07-03T19:00:16.947Z,1.00
2023-07-03T19:03:04.537Z,1.20
2023-07-03T19:05:39.305Z,1.30
2023-07-03T19:08:26.519Z,1.20
2023-07-03T19:11:01.641Z,1.20
2023-07-03T19:13:48.526Z,1.30
2023-07-03T19:16:23.115Z,1.30
2023-07-03T19:19:17.425Z,1.20
2023-07-03T19:22:11.402Z,1.30
2023-07-03T19:24:59.341Z,1.50
2023-07-03T19:27:32.744Z,1.10
2023-07-03T19:30:20.462Z,1.20
2023-07-03T19:32:55.146Z,1.50
2023-07-03T19:35:44.442Z,1.00
2023-07-03T19:38:18.982Z,1.10
2023-07-03T19:41:05.400Z,1.40
2023-07-03T19:43:39.588Z,1.90
2023-07-03T19:46:29.758Z,1.60
2023-07-03T19:49:03.957Z,1.30
2023-07-03T19:51:51.347Z,1.30
2023-07-03T19:54:24.956Z,1.00
2023-07-03T19:57:16.720Z,1.20
2023-07-03T19:59:50.394Z,1.10
2023-07-03T20:02:39.357Z,1.50
2023-07-03T20:05:13.417Z,1.20
2023-07-03T20:08:00.339Z,1.20
2023-07-03T20:10:36.508Z,2.20
2023-07-03T20:13:23.345Z,1.20
2023-07-03T20:15:56.607Z,0.90
2023-07-03T20:18:43.258Z,1.80
2023-07-03T20:21:17.378Z,1.00
2023-07-03T20:24:05.318Z,1.30
2023-07-03T20:26:38.390Z,1.20
2023-07-03T20:29:25.281Z,1.30
2023-07-03T20:32:00.541Z,2.20
2023-07-03T20:34:47.282Z,1.30
2023-07-03T20:37:20.334Z,1.40
2023-07-03T20:40:07.184Z,1.50
2023-07-03T20:42:40.337Z,1.50
2023-07-03T20:45:28.315Z,1.60
2023-07-03T20:48:03.472Z,1.70
2023-07-03T20:50:58.483Z,1.50
2023-07-03T20:53:52.049Z,1.80
2023-07-03T20:56:44.216Z,1.40
2023-07-03T20:59:17.313Z,1.80
2023-07-03T21:02:04.218Z,1.60
2023-07-03T21:04:37.331Z,1.30
2023-07-03T21:07:24.140Z,1.90
2023-07-03T21:10:05.152Z,1.60
2023-07-03T21:12:52.205Z,1.90
2023-07-03T21:15:25.380Z,1.10
2023-07-03T21:18:12.191Z,1.70
2023-07-03T21:20:46.324Z,1.90
2023-07-03T21:23:34.182Z,1.50
2023-07-03T21:26:07.321Z,1.40
2023-07-03T21:28:55.173Z,1.60
2023-07-03T21:31:32.942Z,1.50
2023-07-03T21:34:20.108Z,1.80
2023-07-03T21:36:53.227Z,1.60
2023-07-03T21:39:40.151Z,1.60
2023-07-03T21:42:14.173Z,1.40
2023-07-03T21:45:01.087Z,1.40
2023-07-03T21:47:34.311Z,1.60
2023-07-03T21:50:21.116Z,1.60
2023-07-03T21:52:54.205Z,1.30
2023-07-03T21:55:41.016Z,1.40
2023-07-03T21:58:14.160Z,1.20
2023-07-03T22:01:01.025Z,1.40
2023-07-03T22:03:35.104Z,2.20
2023-07-03T22:06:21.996Z,1.30
2023-07-03T22:08:56.110Z,1.70
2023-07-03T22:11:42.967Z,1.20
2023-07-03T22:14:16.141Z,0.90
2023-07-03T22:17:03.052Z,1.00
2023-07-03T22:19:37.563Z,1.60
2023-07-03T22:22:27.208Z,1.30
2023-07-03T22:25:01.044Z,1.30
2023-07-03T22:27:47.945Z,1.20
2023-07-03T22:30:23.136Z,1.40
2023-07-03T22:33:09.945Z,1.10
2023-07-03T22:35:43.037Z,1.10
2023-07-03T22:38:29.982Z,1.20
2023-07-03T22:41:03.863Z,1.20
2023-07-03T22:43:52.976Z,1.30
2023-07-03T22:46:26.089Z,1.60
2023-07-03T22:49:24.380Z,1.40
2023-07-03T22:51:59.010Z,1.40
2023-07-03T22:54:47.983Z,1.40
2023-07-03T22:57:20.977Z,1.40
2023-07-03T23:00:07.904Z,1.50
2023-07-03T23:02:41.058Z,1.10
2023-07-03T23:05:27.918Z,1.10
2023-07-03T23:08:00.987Z,1.10
2023-07-03T23:10:57.875Z,1.20
2023-07-03T23:13:32.966Z,1.60
2023-07-03T23:16:20.084Z,1.50
2023-07-03T23:18:54.066Z,1.30
2023-07-03T23:21:47.823Z,1.30
2023-07-03T23:24:41.846Z,1.40
2023-07-03T23:27:31.845Z,1.20
2023-07-03T23:30:06.046Z,1.60
2023-07-03T23:32:52.874Z,1.30
2023-07-03T23:35:25.942Z,1.60
2023-07-03T23:38:12.802Z,1.30
2023-07-03T23:40:48.303Z,1.30
2023-07-03T23:43:34.852Z,1.30
2023-07-03T23:46:12.957Z,1.10
2023-07-03T23:48:59.748Z,2.00
2023-07-03T23:51:34.932Z,1.30
2023-07-03T23:54:21.840Z,1.60
2023-07-03T23:56:54.852Z,1.30
2023-07-03T23:59:42.006Z,1.00
